Lindenwood, Illinois
Current Conditions -  °F | °C
As of 9:15 PM on Friday 31 Oct 2014 (Local Time) from KRPJ Reporting Station
Overcast Overcast  
Wind Chill: -3°   Ceiling: 4800
Heat Index:   Visibility: 10mi
Dew Point: -7°   Wind: 12mph
Humidity: 53%   Direction: 30°NNE
Pressure: 30.39"   Gusts: NA
Location:  42.05°N, 89.03°W
Report Text: KRPJ 010215Z AUTO 03010KT 10SM OVC048 02/M07 A3039 RMK AO2 T00191068
Loading
Personal Weather Stations






























Interactive Weather Map
Tropical Storm Tracking
New forecast layout! Learn more

10-Day Weather Forecast

Advertisements
Track Severe Weather on mobile